sensor_id;sensor_type;location;lat;lon;timestamp;pressure;altitude;pressure_sealevel;temperature;humidity
50356;BME280;36264;51.296;-0.602;2023-02-11T00:00:20;103361.94;;;8.54;100.00
50356;BME280;36264;51.296;-0.602;2023-02-11T00:02:45;103366.31;;;8.58;100.00
50356;BME280;36264;51.296;-0.602;2023-02-11T00:05:11;103355.13;;;8.59;100.00
50356;BME280;36264;51.296;-0.602;2023-02-11T00:07:36;103359.47;;;8.60;100.00
50356;BME280;36264;51.296;-0.602;2023-02-11T00:10:03;103358.59;;;8.61;100.00
50356;BME280;36264;51.296;-0.602;2023-02-11T00:12:29;103357.69;;;8.57;100.00
50356;BME280;36264;51.296;-0.602;2023-02-11T00:14:54;103365.44;;;8.57;100.00
50356;BME280;36264;51.296;-0.602;2023-02-11T00:17:20;103359.31;;;8.52;100.00
50356;BME280;36264;51.296;-0.602;2023-02-11T00:19:49;103367.94;;;8.52;100.00
50356;BME280;36264;51.296;-0.602;2023-02-11T00:22:15;103373.91;;;8.48;100.00
50356;BME280;36264;51.296;-0.602;2023-02-11T00:24:40;103375.53;;;8.43;100.00
50356;BME280;36264;51.296;-0.602;2023-02-11T00:27:06;103377.06;;;8.35;100.00
50356;BME280;36264;51.296;-0.602;2023-02-11T00:29:31;103375.94;;;8.22;100.00
50356;BME280;36264;51.296;-0.602;2023-02-11T00:31:57;103374.03;;;8.13;100.00
50356;BME280;36264;51.296;-0.602;2023-02-11T00:34:22;103380.91;;;8.13;100.00
50356;BME280;36264;51.296;-0.602;2023-02-11T00:36:47;103379.09;;;8.09;100.00
50356;BME280;36264;51.296;-0.602;2023-02-11T00:39:13;103367.88;;;8.08;100.00
50356;BME280;36264;51.296;-0.602;2023-02-11T00:41:40;103368.75;;;8.09;100.00
50356;BME280;36264;51.296;-0.602;2023-02-11T00:44:05;103372.34;;;8.15;100.00
50356;BME280;36264;51.296;-0.602;2023-02-11T00:46:31;103380.25;;;8.22;100.00
50356;BME280;36264;51.296;-0.602;2023-02-11T00:48:56;103385.53;;;8.26;100.00
50356;BME280;36264;51.296;-0.602;2023-02-11T00:51:23;103384.84;;;8.35;100.00
50356;BME280;36264;51.296;-0.602;2023-02-11T00:53:49;103386.69;;;8.41;100.00
50356;BME280;36264;51.296;-0.602;2023-02-11T00:56:14;103391.16;;;8.48;100.00
50356;BME280;36264;51.296;-0.602;2023-02-11T00:58:40;103382.63;;;8.52;100.00
50356;BME280;36264;51.296;-0.602;2023-02-11T01:01:05;103393.19;;;8.61;100.00
50356;BME280;36264;51.296;-0.602;2023-02-11T01:03:32;103397.56;;;8.65;100.00
50356;BME280;36264;51.296;-0.602;2023-02-11T01:05:57;103402.72;;;8.64;100.00
50356;BME280;36264;51.296;-0.602;2023-02-11T01:08:23;103395.09;;;8.72;100.00
50356;BME280;36264;51.296;-0.602;2023-02-11T01:10:59;103397.88;;;8.82;100.00
50356;BME280;36264;51.296;-0.602;2023-02-11T01:13:26;103389.19;;;8.79;100.00
50356;BME280;36264;51.296;-0.602;2023-02-11T01:15:52;103388.28;;;8.77;100.00
50356;BME280;36264;51.296;-0.602;2023-02-11T01:18:18;103380.56;;;8.80;100.00
50356;BME280;36264;51.296;-0.602;2023-02-11T01:20:44;103386.69;;;8.83;100.00
50356;BME280;36264;51.296;-0.602;2023-02-11T01:23:09;103383.31;;;8.89;100.00
50356;BME280;36264;51.296;-0.602;2023-02-11T01:25:34;103388.63;;;8.95;100.00
50356;BME280;36264;51.296;-0.602;2023-02-11T01:28:00;103383.47;;;8.97;100.00
50356;BME280;36264;51.296;-0.602;2023-02-11T01:30:25;103381.72;;;8.97;100.00
50356;BME280;36264;51.296;-0.602;2023-02-11T01:32:50;103382.56;;;8.95;100.00
50356;BME280;36264;51.296;-0.602;2023-02-11T01:35:16;103384.31;;;8.97;100.00
50356;BME280;36264;51.296;-0.602;2023-02-11T01:37:41;103385.28;;;9.01;100.00
50356;BME280;36264;51.296;-0.602;2023-02-11T01:40:12;103379.28;;;9.05;100.00
50356;BME280;36264;51.296;-0.602;2023-02-11T01:42:38;103375.78;;;9.01;100.00
50356;BME280;36264;51.296;-0.602;2023-02-11T01:45:45;103374.16;;;9.08;100.00
50356;BME280;36264;51.296;-0.602;2023-02-11T01:48:23;103375.00;;;9.09;100.00
50356;BME280;36264;51.296;-0.602;2023-02-11T01:50:54;103370.75;;;9.11;100.00
50356;BME280;36264;51.296;-0.602;2023-02-11T01:53:21;103376.75;;;9.08;100.00
50356;BME280;36264;51.296;-0.602;2023-02-11T01:56:06;103373.28;;;9.07;100.00
50356;BME280;36264;51.296;-0.602;2023-02-11T01:58:52;103369.84;;;9.10;100.00
50356;BME280;36264;51.296;-0.602;2023-02-11T02:01:23;103369.06;;;9.13;100.00
50356;BME280;36264;51.296;-0.602;2023-02-11T02:03:53;103368.19;;;9.12;100.00
50356;BME280;36264;51.296;-0.602;2023-02-11T02:06:51;103368.97;;;9.08;100.00
50356;BME280;36264;51.296;-0.602;2023-02-11T02:09:25;103363.66;;;9.00;100.00
50356;BME280;36264;51.296;-0.602;2023-02-11T02:11:52;103373.88;;;8.93;100.00
50356;BME280;36264;51.296;-0.602;2023-02-11T02:14:18;103366.94;;;8.90;100.00
50356;BME280;36264;51.296;-0.602;2023-02-11T02:16:43;103375.50;;;8.87;100.00
50356;BME280;36264;51.296;-0.602;2023-02-11T02:27:28;103361.63;;;8.84;100.00
50356;BME280;36264;51.296;-0.602;2023-02-11T02:35:40;103370.22;;;8.81;100.00
50356;BME280;36264;51.296;-0.602;2023-02-11T02:38:36;103373.66;;;8.79;100.00
50356;BME280;36264;51.296;-0.602;2023-02-11T02:41:09;103371.81;;;8.73;100.00
50356;BME280;36264;51.296;-0.602;2023-02-11T02:43:41;103364.81;;;8.69;100.00
50356;BME280;36264;51.296;-0.602;2023-02-11T02:48:34;103363.06;;;8.68;100.00
50356;BME280;36264;51.296;-0.602;2023-02-11T03:02:06;103345.06;;;8.74;100.00
50356;BME280;36264;51.296;-0.602;2023-02-11T03:05:00;103340.69;;;8.72;100.00
50356;BME280;36264;51.296;-0.602;2023-02-11T03:10:30;103319.53;;;8.50;100.00
50356;BME280;36264;51.296;-0.602;2023-02-11T03:12:58;103323.63;;;8.40;100.00
50356;BME280;36264;51.296;-0.602;2023-02-11T03:15:27;103335.03;;;8.45;100.00
50356;BME280;36264;51.296;-0.602;2023-02-11T03:17:56;103340.94;;;8.41;100.00
50356;BME280;36264;51.296;-0.602;2023-02-11T03:20:23;103339.00;;;8.31;100.00
50356;BME280;36264;51.296;-0.602;2023-02-11T03:22:56;103325.06;;;8.24;100.00
50356;BME280;36264;51.296;-0.602;2023-02-11T03:25:29;103320.50;;;8.11;100.00
50356;BME280;36264;51.296;-0.602;2023-02-11T03:28:13;103322.84;;;8.00;100.00
50356;BME280;36264;51.296;-0.602;2023-02-11T03:30:53;103321.84;;;7.93;100.00
50356;BME280;36264;51.296;-0.602;2023-02-11T03:33:27;103322.50;;;7.85;100.00
50356;BME280;36264;51.296;-0.602;2023-02-11T03:35:57;103330.03;;;7.74;100.00
50356;BME280;36264;51.296;-0.602;2023-02-11T03:38:28;103338.50;;;7.67;100.00
50356;BME280;36264;51.296;-0.602;2023-02-11T03:40:56;103343.56;;;7.62;100.00
50356;BME280;36264;51.296;-0.602;2023-02-11T03:43:31;103336.56;;;7.58;100.00
50356;BME280;36264;51.296;-0.602;2023-02-11T03:45:58;103345.03;;;7.51;100.00
50356;BME280;36264;51.296;-0.602;2023-02-11T03:48:28;103338.16;;;7.51;100.00
50356;BME280;36264;51.296;-0.602;2023-02-11T03:50:57;103337.31;;;7.52;100.00
50356;BME280;36264;51.296;-0.602;2023-02-11T03:53:23;103331.28;;;7.52;100.00
50356;BME280;36264;51.296;-0.602;2023-02-11T03:55:50;103325.38;;;7.57;100.00
50356;BME280;36264;51.296;-0.602;2023-02-11T03:58:16;103329.78;;;7.61;100.00
50356;BME280;36264;51.296;-0.602;2023-02-11T04:00:43;103333.41;;;7.70;100.00
50356;BME280;36264;51.296;-0.602;2023-02-11T04:03:09;103335.16;;;7.71;100.00
50356;BME280;36264;51.296;-0.602;2023-02-11T04:05:35;103333.31;;;7.65;100.00
50356;BME280;36264;51.296;-0.602;2023-02-11T04:08:01;103339.16;;;7.58;100.00
50356;BME280;36264;51.296;-0.602;2023-02-11T04:10:26;103339.19;;;7.59;100.00
50356;BME280;36264;51.296;-0.602;2023-02-11T04:12:52;103339.97;;;7.55;100.00
50356;BME280;36264;51.296;-0.602;2023-02-11T04:15:17;103334.84;;;7.57;100.00
50356;BME280;36264;51.296;-0.602;2023-02-11T04:17:43;103345.22;;;7.58;100.00
50356;BME280;36264;51.296;-0.602;2023-02-11T04:20:09;103350.50;;;7.63;100.00
50356;BME280;36264;51.296;-0.602;2023-02-11T04:22:35;103349.69;;;7.66;100.00
50356;BME280;36264;51.296;-0.602;2023-02-11T04:25:00;103348.84;;;7.67;100.00
50356;BME280;36264;51.296;-0.602;2023-02-11T04:27:26;103349.81;;;7.72;100.00
50356;BME280;36264;51.296;-0.602;2023-02-11T04:29:51;103354.28;;;7.77;100.00
50356;BME280;36264;51.296;-0.602;2023-02-11T04:32:16;103352.59;;;7.79;100.00
50356;BME280;36264;51.296;-0.602;2023-02-11T04:34:42;103355.22;;;7.81;100.00
50356;BME280;36264;51.296;-0.602;2023-02-11T04:37:07;103354.38;;;7.82;100.00
50356;BME280;36264;51.296;-0.602;2023-02-11T04:39:33;103354.47;;;7.85;100.00
50356;BME280;36264;51.296;-0.602;2023-02-11T04:41:59;103364.88;;;7.88;100.00
50356;BME280;36264;51.296;-0.602;2023-02-11T04:44:24;103356.28;;;7.91;100.00
50356;BME280;36264;51.296;-0.602;2023-02-11T04:46:50;103357.16;;;7.90;100.00
50356;BME280;36264;51.296;-0.602;2023-02-11T04:49:16;103362.31;;;7.90;100.00
50356;BME280;36264;51.296;-0.602;2023-02-11T04:51:42;103357.09;;;7.87;100.00
50356;BME280;36264;51.296;-0.602;2023-02-11T04:54:09;103357.13;;;7.88;100.00
50356;BME280;36264;51.296;-0.602;2023-02-11T04:56:35;103356.19;;;7.86;100.00
50356;BME280;36264;51.296;-0.602;2023-02-11T04:59:01;103353.63;;;7.88;100.00
50356;BME280;36264;51.296;-0.602;2023-02-11T05:01:26;103360.56;;;7.89;100.00
50356;BME280;36264;51.296;-0.602;2023-02-11T05:03:52;103356.31;;;7.92;100.00
50356;BME280;36264;51.296;-0.602;2023-02-11T05:06:17;103361.50;;;7.92;100.00
50356;BME280;36264;51.296;-0.602;2023-02-11T05:08:42;103364.13;;;7.94;100.00
50356;BME280;36264;51.296;-0.602;2023-02-11T05:11:16;103366.75;;;7.95;100.00
50356;BME280;36264;51.296;-0.602;2023-02-11T05:13:42;103369.28;;;7.94;100.00
50356;BME280;36264;51.296;-0.602;2023-02-11T05:16:07;103370.97;;;7.92;100.00
50356;BME280;36264;51.296;-0.602;2023-02-11T05:18:33;103368.41;;;7.92;100.00
50356;BME280;36264;51.296;-0.602;2023-02-11T05:20:58;103364.91;;;7.90;100.00
50356;BME280;36264;51.296;-0.602;2023-02-11T05:23:24;103367.53;;;7.93;100.00
50356;BME280;36264;51.296;-0.602;2023-02-11T05:25:49;103369.25;;;7.92;100.00
50356;BME280;36264;51.296;-0.602;2023-02-11T05:28:14;103377.94;;;7.94;100.00
50356;BME280;36264;51.296;-0.602;2023-02-11T05:30:40;103370.09;;;7.90;100.00
50356;BME280;36264;51.296;-0.602;2023-02-11T05:33:05;103378.78;;;7.93;100.00
50356;BME280;36264;51.296;-0.602;2023-02-11T05:35:31;103380.53;;;7.96;100.00
50356;BME280;36264;51.296;-0.602;2023-02-11T05:37:56;103371.84;;;7.92;100.00
50356;BME280;36264;51.296;-0.602;2023-02-11T05:40:22;103375.44;;;7.99;100.00
50356;BME280;36264;51.296;-0.602;2023-02-11T05:42:47;103385.03;;;8.03;100.00
50356;BME280;36264;51.296;-0.602;2023-02-11T05:45:13;103383.28;;;8.02;100.00
50356;BME280;36264;51.296;-0.602;2023-02-11T05:47:38;103379.97;;;8.08;100.00
50356;BME280;36264;51.296;-0.602;2023-02-11T05:50:04;103374.81;;;8.09;100.00
50356;BME280;36264;51.296;-0.602;2023-02-11T05:52:29;103370.44;;;8.07;100.00
50356;BME280;36264;51.296;-0.602;2023-02-11T05:54:54;103380.84;;;8.10;100.00
50356;BME280;36264;51.296;-0.602;2023-02-11T05:57:20;103376.50;;;8.07;100.00
50356;BME280;36264;51.296;-0.602;2023-02-11T05:59:45;103383.44;;;8.10;100.00
50356;BME280;36264;51.296;-0.602;2023-02-11T06:02:10;103379.09;;;8.07;100.00
50356;BME280;36264;51.296;-0.602;2023-02-11T06:04:36;103373.13;;;8.11;100.00
50356;BME280;36264;51.296;-0.602;2023-02-11T06:07:02;103382.69;;;8.14;100.00
50356;BME280;36264;51.296;-0.602;2023-02-11T06:09:28;103376.53;;;8.10;100.00
50356;BME280;36264;51.296;-0.602;2023-02-11T06:11:54;103368.78;;;8.10;100.00
50356;BME280;36264;51.296;-0.602;2023-02-11T06:14:19;103379.13;;;8.10;100.00
50356;BME280;36264;51.296;-0.602;2023-02-11T06:16:45;103377.50;;;8.14;100.00
50356;BME280;36264;51.296;-0.602;2023-02-11T06:19:11;103380.28;;;8.23;100.00
50356;BME280;36264;51.296;-0.602;2023-02-11T06:21:37;103379.44;;;8.24;100.00
50356;BME280;36264;51.296;-0.602;2023-02-11T06:24:02;103377.78;;;8.26;100.00
50356;BME280;36264;51.296;-0.602;2023-02-11T06:26:29;103383.88;;;8.30;100.00
50356;BME280;36264;51.296;-0.602;2023-02-11T06:28:54;103389.00;;;8.27;100.00
50356;BME280;36264;51.296;-0.602;2023-02-11T06:31:20;103395.91;;;8.28;100.00
50356;BME280;36264;51.296;-0.602;2023-02-11T06:33:45;103393.28;;;8.25;100.00
50356;BME280;36264;51.296;-0.602;2023-02-11T06:36:16;103389.06;;;8.30;100.00
50356;BME280;36264;51.296;-0.602;2023-02-11T06:38:42;103392.44;;;8.27;100.00
50356;BME280;36264;51.296;-0.602;2023-02-11T06:41:09;103390.78;;;8.31;100.00
50356;BME280;36264;51.296;-0.602;2023-02-11T06:43:35;103387.28;;;8.29;100.00
50356;BME280;36264;51.296;-0.602;2023-02-11T06:46:01;103388.19;;;8.31;100.00
50356;BME280;36264;51.296;-0.602;2023-02-11T06:48:26;103392.47;;;8.29;100.00
50356;BME280;36264;51.296;-0.602;2023-02-11T06:50:51;103393.31;;;8.28;100.00
50356;BME280;36264;51.296;-0.602;2023-02-11T06:53:17;103395.06;;;8.29;100.00
50356;BME280;36264;51.296;-0.602;2023-02-11T06:55:42;103388.16;;;8.29;100.00
50356;BME280;36264;51.296;-0.602;2023-02-11T06:58:07;103379.53;;;8.29;100.00
50356;BME280;36264;51.296;-0.602;2023-02-11T07:00:33;103389.91;;;8.30;100.00
50356;BME280;36264;51.296;-0.602;2023-02-11T07:02:58;103384.75;;;8.30;100.00
50356;BME280;36264;51.296;-0.602;2023-02-11T07:05:23;103390.75;;;8.29;100.00
50356;BME280;36264;51.296;-0.602;2023-02-11T07:07:49;103387.31;;;8.30;100.00
50356;BME280;36264;51.296;-0.602;2023-02-11T07:10:14;103394.31;;;8.33;100.00
50356;BME280;36264;51.296;-0.602;2023-02-11T07:12:40;103394.34;;;8.34;100.00
50356;BME280;36264;51.296;-0.602;2023-02-11T07:15:05;103389.22;;;8.38;100.00
50356;BME280;36264;51.296;-0.602;2023-02-11T07:17:33;103400.31;;;8.32;100.00
50356;BME280;36264;51.296;-0.602;2023-02-11T07:19:58;103403.66;;;8.26;100.00
50356;BME280;36264;51.296;-0.602;2023-02-11T07:22:24;103414.03;;;8.28;100.00
50356;BME280;36264;51.296;-0.602;2023-02-11T07:24:49;103414.88;;;8.27;100.00
50356;BME280;36264;51.296;-0.602;2023-02-11T07:27:14;103415.81;;;8.30;100.00
50356;BME280;36264;51.296;-0.602;2023-02-11T07:29:40;103426.44;;;8.43;100.00
50356;BME280;36264;51.296;-0.602;2023-02-11T07:32:06;103435.28;;;8.51;100.00
50356;BME280;36264;51.296;-0.602;2023-02-11T07:34:31;103431.88;;;8.54;100.00
50356;BME280;36264;51.296;-0.602;2023-02-11T07:36:57;103430.09;;;8.51;100.00
50356;BME280;36264;51.296;-0.602;2023-02-11T07:39:22;103439.59;;;8.50;100.00
50356;BME280;36264;51.296;-0.602;2023-02-11T07:41:51;103437.84;;;8.51;100.00
50356;BME280;36264;51.296;-0.602;2023-02-11T07:44:17;103449.97;;;8.52;100.00
50356;BME280;36264;51.296;-0.602;2023-02-11T07:46:42;103446.41;;;8.47;100.00
50356;BME280;36264;51.296;-0.602;2023-02-11T07:49:10;103451.72;;;8.53;100.00
50356;BME280;36264;51.296;-0.602;2023-02-11T07:51:35;103436.94;;;8.47;100.00
50356;BME280;36264;51.296;-0.602;2023-02-11T07:54:00;103454.31;;;8.53;100.00
50356;BME280;36264;51.296;-0.602;2023-02-11T07:56:27;103447.41;;;8.52;100.00
50356;BME280;36264;51.296;-0.602;2023-02-11T07:58:54;103458.72;;;8.57;100.00
50356;BME280;36264;51.296;-0.602;2023-02-11T08:01:23;103457.00;;;8.58;100.00
50356;BME280;36264;51.296;-0.602;2023-02-11T08:03:50;103451.81;;;8.58;100.00
50356;BME280;36264;51.296;-0.602;2023-02-11T08:06:17;103448.44;;;8.62;100.00
50356;BME280;36264;51.296;-0.602;2023-02-11T08:08:44;103446.75;;;8.64;100.00
50356;BME280;36264;51.296;-0.602;2023-02-11T08:11:15;103452.00;;;8.67;100.00
50356;BME280;36264;51.296;-0.602;2023-02-11T08:13:41;103449.41;;;8.67;100.00
50356;BME280;36264;51.296;-0.602;2023-02-11T08:16:18;103446.81;;;8.67;100.00
50356;BME280;36264;51.296;-0.602;2023-02-11T08:18:44;103436.31;;;8.61;100.00
50356;BME280;36264;51.296;-0.602;2023-02-11T08:21:10;103436.47;;;8.67;100.00
50356;BME280;36264;51.296;-0.602;2023-02-11T08:23:36;103431.47;;;8.76;100.00
50356;BME280;36264;51.296;-0.602;2023-02-11T08:26:14;103432.50;;;8.86;100.00
50356;BME280;36264;51.296;-0.602;2023-02-11T08:28:41;103433.44;;;8.89;100.00
50356;BME280;36264;51.296;-0.602;2023-02-11T08:31:09;103447.38;;;8.95;100.00
50356;BME280;36264;51.296;-0.602;2023-02-11T08:33:35;103451.63;;;8.93;100.00
50356;BME280;36264;51.296;-0.602;2023-02-11T08:36:07;103437.13;;;9.01;100.00
50356;BME280;36264;51.296;-0.602;2023-02-11T08:38:33;103435.38;;;9.00;100.00
50356;BME280;36264;51.296;-0.602;2023-02-11T08:40:59;103433.78;;;9.08;100.00
50356;BME280;36264;51.296;-0.602;2023-02-11T08:43:24;103433.78;;;9.08;100.00
50356;BME280;36264;51.296;-0.602;2023-02-11T08:45:50;103446.75;;;9.08;100.00
50356;BME280;36264;51.296;-0.602;2023-02-11T08:48:15;103448.53;;;9.11;100.00
50356;BME280;36264;51.296;-0.602;2023-02-11T08:50:40;103445.94;;;9.11;100.00
50356;BME280;36264;51.296;-0.602;2023-02-11T08:53:06;103448.56;;;9.12;100.00
50356;BME280;36264;51.296;-0.602;2023-02-11T08:55:31;103447.81;;;9.19;100.00
50356;BME280;36264;51.296;-0.602;2023-02-11T08:57:56;103447.03;;;9.23;100.00
50356;BME280;36264;51.296;-0.602;2023-02-11T09:00:22;103454.06;;;9.31;100.00
50356;BME280;36264;51.296;-0.602;2023-02-11T09:02:47;103441.06;;;9.29;100.00
50356;BME280;36264;51.296;-0.602;2023-02-11T09:05:13;103447.31;;;9.39;100.00
50356;BME280;36264;51.296;-0.602;2023-02-11T09:07:38;103444.00;;;9.48;100.00
50356;BME280;36264;51.296;-0.602;2023-02-11T09:10:04;103444.06;;;9.52;100.00
50356;BME280;36264;51.296;-0.602;2023-02-11T09:12:30;103445.00;;;9.57;100.00
50356;BME280;36264;51.296;-0.602;2023-02-11T09:14:56;103455.50;;;9.65;100.00
50356;BME280;36264;51.296;-0.602;2023-02-11T09:17:21;103447.84;;;9.73;100.00
50356;BME280;36264;51.296;-0.602;2023-02-11T09:19:46;103447.06;;;9.77;100.00
50356;BME280;36264;51.296;-0.602;2023-02-11T09:22:12;103448.81;;;9.79;100.00
50356;BME280;36264;51.296;-0.602;2023-02-11T09:24:37;103440.31;;;9.88;100.00
50356;BME280;36264;51.296;-0.602;2023-02-11T09:27:02;103437.81;;;9.94;100.00
50356;BME280;36264;51.296;-0.602;2023-02-11T09:29:28;103436.09;;;9.96;100.00
50356;BME280;36264;51.296;-0.602;2023-02-11T09:31:53;103437.88;;;10.01;100.00
50356;BME280;36264;51.296;-0.602;2023-02-11T09:34:18;103436.19;;;10.03;100.00
50356;BME280;36264;51.296;-0.602;2023-02-11T09:36:44;103442.28;;;10.05;100.00
50356;BME280;36264;51.296;-0.602;2023-02-11T09:39:15;103446.69;;;10.10;100.00
50356;BME280;36264;51.296;-0.602;2023-02-11T09:44:33;103448.47;;;10.14;100.00
50356;BME280;36264;51.296;-0.602;2023-02-11T09:47:02;103446.78;;;10.18;100.00
50356;BME280;36264;51.296;-0.602;2023-02-11T09:49:42;103452.00;;;10.20;100.00
50356;BME280;36264;51.296;-0.602;2023-02-11T09:55:05;103440.84;;;10.27;100.00
50356;BME280;36264;51.296;-0.602;2023-02-11T09:57:35;103438.31;;;10.31;100.00
50356;BME280;36264;51.296;-0.602;2023-02-11T10:00:11;103441.84;;;10.33;100.00
50356;BME280;36264;51.296;-0.602;2023-02-11T10:02:55;103454.03;;;10.39;100.00
50356;BME280;36264;51.296;-0.602;2023-02-11T10:08:10;103456.63;;;10.38;100.00
50356;BME280;36264;51.296;-0.602;2023-02-11T10:16:36;103454.19;;;10.50;100.00
50356;BME280;36264;51.296;-0.602;2023-02-11T10:19:39;103459.44;;;10.56;100.00
50356;BME280;36264;51.296;-0.602;2023-02-11T10:22:20;103462.09;;;10.61;100.00
50356;BME280;36264;51.296;-0.602;2023-02-11T10:24:50;103462.94;;;10.58;100.00
50356;BME280;36264;51.296;-0.602;2023-02-11T10:27:20;103465.47;;;10.54;100.00
50356;BME280;36264;51.296;-0.602;2023-02-11T10:29:54;103462.09;;;10.61;100.00
50356;BME280;36264;51.296;-0.602;2023-02-11T10:32:32;103467.28;;;10.61;100.00
50356;BME280;36264;51.296;-0.602;2023-02-11T10:35:03;103458.59;;;10.59;100.00
50356;BME280;36264;51.296;-0.602;2023-02-11T10:37:34;103472.50;;;10.62;100.00
50356;BME280;36264;51.296;-0.602;2023-02-11T10:39:59;103461.22;;;10.59;100.00
50356;BME280;36264;51.296;-0.602;2023-02-11T10:42:26;103468.19;;;10.61;100.00
50356;BME280;36264;51.296;-0.602;2023-02-11T10:44:56;103467.28;;;10.61;100.00
50356;BME280;36264;51.296;-0.602;2023-02-11T10:47:23;103461.28;;;10.65;100.00
50356;BME280;36264;51.296;-0.602;2023-02-11T10:49:51;103463.88;;;10.65;100.00
50356;BME280;36264;51.296;-0.602;2023-02-11T10:54:58;103467.47;;;10.76;100.00
50356;BME280;36264;51.296;-0.602;2023-02-11T10:57:33;103474.47;;;10.79;100.00
50356;BME280;36264;51.296;-0.602;2023-02-11T11:00:04;103476.19;;;10.80;100.00
50356;BME280;36264;51.296;-0.602;2023-02-11T11:02:32;103473.63;;;10.83;100.00
50356;BME280;36264;51.296;-0.602;2023-02-11T11:05:14;103481.50;;;10.89;100.00
50356;BME280;36264;51.296;-0.602;2023-02-11T11:07:51;103487.56;;;10.91;100.00
50356;BME280;36264;51.296;-0.602;2023-02-11T11:10:35;103477.19;;;10.91;100.00
50356;BME280;36264;51.296;-0.602;2023-02-11T11:13:01;103468.50;;;10.89;100.00
50356;BME280;36264;51.296;-0.602;2023-02-11T11:15:29;103477.22;;;10.94;100.00
50356;BME280;36264;51.296;-0.602;2023-02-11T11:18:12;103475.56;;;10.99;100.00
50356;BME280;36264;51.296;-0.602;2023-02-11T11:20:38;103479.84;;;10.96;100.00
50356;BME280;36264;51.296;-0.602;2023-02-11T11:25:43;103457.44;;;11.07;100.00
50356;BME280;36264;51.296;-0.602;2023-02-11T11:28:24;103461.81;;;11.13;100.00
50356;BME280;36264;51.296;-0.602;2023-02-11T11:30:51;103458.38;;;11.15;100.00
50356;BME280;36264;51.296;-0.602;2023-02-11T11:33:22;103467.09;;;11.20;100.00
50356;BME280;36264;51.296;-0.602;2023-02-11T11:36:07;103462.81;;;11.27;100.00
50356;BME280;36264;51.296;-0.602;2023-02-11T11:38:36;103464.63;;;11.33;100.00
50356;BME280;36264;51.296;-0.602;2023-02-11T11:41:30;103462.88;;;11.33;100.00
50356;BME280;36264;51.296;-0.602;2023-02-11T11:44:00;103457.69;;;11.33;100.00
50356;BME280;36264;51.296;-0.602;2023-02-11T11:46:28;103457.66;;;11.32;100.00
50356;BME280;36264;51.296;-0.602;2023-02-11T11:52:10;103456.84;;;11.36;100.00
50356;BME280;36264;51.296;-0.602;2023-02-11T11:54:35;103457.66;;;11.30;100.00
50356;BME280;36264;51.296;-0.602;2023-02-11T11:57:10;103457.66;;;11.32;100.00
50356;BME280;36264;51.296;-0.602;2023-02-11T11:59:37;103459.38;;;11.28;100.00
50356;BME280;36264;51.296;-0.602;2023-02-11T12:10:27;103438.53;;;11.25;100.00
50356;BME280;36264;51.296;-0.602;2023-02-11T12:13:21;103445.47;;;11.29;100.00
50356;BME280;36264;51.296;-0.602;2023-02-11T12:24:29;103445.50;;;11.28;100.00
50356;BME280;36264;51.296;-0.602;2023-02-11T12:30:18;103440.28;;;11.26;100.00
50356;BME280;36264;51.296;-0.602;2023-02-11T12:33:14;103444.56;;;11.24;100.00
50356;BME280;36264;51.296;-0.602;2023-02-11T12:35:59;103435.03;;;11.23;100.00
50356;BME280;36264;51.296;-0.602;2023-02-11T12:38:29;103437.59;;;11.18;100.00
50356;BME280;36264;51.296;-0.602;2023-02-11T12:44:37;103438.50;;;11.22;100.00
50356;BME280;36264;51.296;-0.602;2023-02-11T12:49:58;103439.31;;;11.19;100.00
50356;BME280;36264;51.296;-0.602;2023-02-11T12:55:26;103440.22;;;11.20;100.00
50356;BME280;36264;51.296;-0.602;2023-02-11T12:57:55;103432.41;;;11.20;100.00
50356;BME280;36264;51.296;-0.602;2023-02-11T13:00:34;103436.75;;;11.21;100.00
50356;BME280;36264;51.296;-0.602;2023-02-11T13:03:18;103441.09;;;11.20;100.00
50356;BME280;36264;51.296;-0.602;2023-02-11T13:06:05;103442.84;;;11.21;100.00
50356;BME280;36264;51.296;-0.602;2023-02-11T13:08:36;103429.81;;;11.20;100.00
50356;BME280;36264;51.296;-0.602;2023-02-11T13:11:07;103431.50;;;11.16;100.00
50356;BME280;36264;51.296;-0.602;2023-02-11T13:13:59;103423.75;;;11.22;100.00
50356;BME280;36264;51.296;-0.602;2023-02-11T13:16:40;103428.09;;;11.22;100.00
50356;BME280;36264;51.296;-0.602;2023-02-11T13:26:57;103427.19;;;11.17;100.00
50356;BME280;36264;51.296;-0.602;2023-02-11T13:32:15;103424.53;;;11.11;100.00
50356;BME280;36264;51.296;-0.602;2023-02-11T13:37:30;103421.94;;;11.14;100.00
50356;BME280;36264;51.296;-0.602;2023-02-11T13:40:00;103414.09;;;11.08;100.00
50356;BME280;36264;51.296;-0.602;2023-02-11T13:42:28;103413.22;;;11.10;100.00
50356;BME280;36264;51.296;-0.602;2023-02-11T13:44:55;103410.63;;;11.12;100.00
50356;BME280;36264;51.296;-0.602;2023-02-11T13:47:41;103414.16;;;11.15;100.00
50356;BME280;36264;51.296;-0.602;2023-02-11T13:50:07;103420.19;;;11.11;100.00
50356;BME280;36264;51.296;-0.602;2023-02-11T13:52:36;103417.59;;;11.13;100.00
50356;BME280;36264;51.296;-0.602;2023-02-11T13:57:38;103420.16;;;11.10;100.00
50356;BME280;36264;51.296;-0.602;2023-02-11T14:22:11;103405.41;;;11.05;100.00
50356;BME280;36264;51.296;-0.602;2023-02-11T14:40:34;103407.13;;;11.05;100.00
50356;BME280;36264;51.296;-0.602;2023-02-11T14:43:12;103400.16;;;11.02;100.00
50356;BME280;36264;51.296;-0.602;2023-02-11T14:45:41;103407.97;;;11.02;100.00
50356;BME280;36264;51.296;-0.602;2023-02-11T14:48:15;103401.91;;;11.03;100.00
50356;BME280;36264;51.296;-0.602;2023-02-11T14:50:51;103403.59;;;10.98;100.00
50356;BME280;36264;51.296;-0.602;2023-02-11T14:53:20;103404.47;;;11.02;100.00
50356;BME280;36264;51.296;-0.602;2023-02-11T14:55:49;103410.56;;;11.01;100.00
50356;BME280;36264;51.296;-0.602;2023-02-11T14:58:36;103413.16;;;10.99;100.00
50356;BME280;36264;51.296;-0.602;2023-02-11T15:01:05;103409.66;;;10.99;100.00
50356;BME280;36264;51.296;-0.602;2023-02-11T15:03:40;103406.97;;;10.93;100.00